Time;durP1;ratioP1;P1;durP2;ratioP2;P2;SDS_P1;SDS_P2;PMS_P1;PMS_P2;Temp;Humidity;BMP_temperature;BMP_pressure;BME280_temperature;BME280_humidity;BME280_pressure;Samples;Min_cycle;Max_cycle;Signal;HPM_P1;HPM_P2
2023/06/02 00:00:15;;;;;;;12.18;3.42;;;;;;;-148.88;91.95;-17125.47;4979001;28;20031;-84
2023/06/02 00:02:41;;;;;;;17.15;4.20;;;;;;;-148.88;93.48;-17125.47;4977599;28;20037;-84
2023/06/02 00:05:06;;;;;;;14.48;4.10;;;;;;;-148.88;93.77;-17125.47;4992281;28;20018;-82
2023/06/02 00:07:32;;;;;;;13.90;2.38;;;;;;;-148.88;94.21;-17125.47;4976782;28;20109;-84
2023/06/02 00:09:58;;;;;;;8.57;2.38;;;;;;;-148.88;95.30;-17125.47;4976450;28;20122;-82
2023/06/02 00:12:24;;;;;;;13.27;4.13;;;;;;;-148.88;95.30;-17125.47;4978371;28;20105;-84
2023/06/02 00:14:49;;;;;;;13.55;3.83;;;;;;;-148.88;92.75;-17125.47;4977815;28;20058;-84
2023/06/02 00:17:16;;;;;;;10.60;2.42;;;;;;;-148.88;93.11;-17125.47;4977678;28;20082;-84
2023/06/02 00:19:42;;;;;;;14.00;2.53;;;;;;;-148.88;93.92;-17125.47;4976311;28;20396;-84
2023/06/02 00:22:13;;;;;;;13.75;3.90;;;;;;;-148.88;94.03;-17125.47;4977537;28;20038;-84
2023/06/02 00:24:39;;;;;;;14.57;3.90;;;;;;;-148.88;94.96;-17125.47;4977559;28;20512;-84
2023/06/02 00:27:04;;;;;;;9.52;2.65;;;;;;;-148.88;92.80;-17125.47;4979079;28;20027;-85
2023/06/02 00:29:30;;;;;;;10.02;2.63;;;;;;;-148.88;93.76;-17125.47;4977117;28;20397;-83
2023/06/02 00:31:55;;;;;;;9.60;2.58;;;;;;;-148.88;94.43;-17125.47;4977493;28;20023;-84
2023/06/02 00:34:20;;;;;;;12.40;3.17;;;;;;;-148.88;93.24;-17125.47;4977535;28;20160;-84
2023/06/02 00:36:46;;;;;;;7.90;2.10;;;;;;;-148.88;92.41;-17125.47;4976880;28;20369;-84
2023/06/02 00:39:11;;;;;;;10.82;3.83;;;;;;;-148.88;92.36;-17125.47;4978470;28;20393;-84
2023/06/02 00:41:37;;;;;;;14.98;4.20;;;;;;;-148.88;91.80;-17125.47;4976068;28;20109;-83
2023/06/02 00:44:02;;;;;;;14.43;4.85;;;;;;;-148.88;92.63;-17125.47;4975802;28;20373;-82
2023/06/02 00:46:27;;;;;;;11.88;3.70;;;;;;;-148.88;92.65;-17125.47;4976129;28;20030;-83
2023/06/02 00:48:53;;;;;;;16.27;4.40;;;;;;;-148.88;93.51;-17125.47;4976430;28;20083;-84
2023/06/02 00:51:19;;;;;;;15.02;4.25;;;;;;;-148.88;93.97;-17125.47;4976384;28;20058;-83
2023/06/02 00:53:45;;;;;;;13.43;4.20;;;;;;;-148.88;93.47;-17125.47;4976429;28;20074;-84
2023/06/02 00:56:14;;;;;;;16.23;4.75;;;;;;;-148.88;92.80;-17125.47;4976665;28;20433;-85
2023/06/02 00:58:43;;;;;;;14.57;3.80;;;;;;;-148.88;94.35;-17125.47;4983037;28;20045;-86
2023/06/02 01:01:10;;;;;;;16.70;5.13;;;;;;;-148.88;94.20;-17125.47;4981308;28;20022;-86
2023/06/02 01:03:39;;;;;;;12.55;4.70;;;;;;;-148.88;92.92;-17125.47;4983392;28;20046;-86
2023/06/02 01:06:06;;;;;;;12.73;5.07;;;;;;;-148.88;92.87;-17125.47;4981797;28;20027;-85
2023/06/02 01:08:33;;;;;;;12.25;3.17;;;;;;;-148.88;92.29;-17125.47;4979555;28;20405;-85
2023/06/02 01:10:59;;;;;;;15.90;5.40;;;;;;;-148.88;92.78;-17125.47;4982303;28;20047;-84
2023/06/02 01:13:24;;;;;;;9.75;3.78;;;;;;;-148.88;93.26;-17125.47;4980965;28;20030;-85
2023/06/02 01:15:50;;;;;;;12.77;5.15;;;;;;;-148.88;93.71;-17125.47;4980859;28;20038;-83
2023/06/02 01:18:17;;;;;;;11.23;3.63;;;;;;;-148.88;92.18;-17125.47;4975615;28;20035;-83
2023/06/02 01:20:44;;;;;;;16.15;5.03;;;;;;;-148.88;93.13;-17125.47;4973961;28;20081;-84
2023/06/02 01:23:23;;;;;;;13.32;5.05;;;;;;;-148.88;93.70;-17125.47;4975133;28;20027;-84
2023/06/02 01:25:52;;;;;;;12.43;4.57;;;;;;;-148.88;93.57;-17125.47;4977122;28;20031;-83
2023/06/02 01:28:18;;;;;;;14.32;5.47;;;;;;;-148.88;92.46;-17125.47;4975437;28;20077;-84
2023/06/02 01:30:43;;;;;;;16.30;5.50;;;;;;;-148.88;93.98;-17125.47;4973955;28;20428;-83
2023/06/02 01:33:31;;;;;;;16.90;5.45;;;;;;;-148.88;93.07;-17125.47;4974039;28;20481;-84
2023/06/02 01:36:00;;;;;;;11.77;4.60;;;;;;;-148.88;92.65;-17125.47;4975249;28;20488;-83
2023/06/02 01:38:28;;;;;;;14.13;3.75;;;;;;;-148.88;92.71;-17125.47;4975109;28;20026;-84
2023/06/02 01:40:55;;;;;;;14.57;5.13;;;;;;;-148.88;92.78;-17125.47;4974936;28;20098;-84
2023/06/02 01:43:21;;;;;;;14.35;4.38;;;;;;;-148.88;93.19;-17125.47;4974788;28;20485;-84
2023/06/02 01:45:47;;;;;;;16.85;5.00;;;;;;;-148.88;93.97;-17125.47;4974989;28;20065;-84
2023/06/02 01:48:13;;;;;;;14.80;4.32;;;;;;;-148.88;94.45;-17125.47;4989932;28;20113;-84
2023/06/02 01:50:38;;;;;;;13.77;4.40;;;;;;;-148.88;94.78;-17125.47;4973582;28;20109;-82
2023/06/02 01:53:04;;;;;;;11.23;3.53;;;;;;;-148.88;93.94;-17125.47;4973648;28;20090;-84
2023/06/02 01:55:30;;;;;;;12.25;4.47;;;;;;;-148.88;92.48;-17125.47;4972926;28;20045;-84
2023/06/02 01:57:55;;;;;;;11.27;4.20;;;;;;;-148.88;92.70;-17125.47;4974383;28;20388;-84
2023/06/02 02:00:21;;;;;;;13.23;4.00;;;;;;;-148.88;92.23;-17125.47;4973485;28;20023;-84
2023/06/02 02:02:47;;;;;;;15.75;4.45;;;;;;;-148.88;92.60;-17125.47;4974389;28;20511;-84
2023/06/02 02:05:13;;;;;;;19.55;4.57;;;;;;;-148.88;93.72;-17125.47;4974452;28;20105;-83
2023/06/02 02:07:41;;;;;;;14.02;4.72;;;;;;;-148.88;93.77;-17125.47;4973163;28;20105;-84
2023/06/02 02:10:08;;;;;;;10.27;4.20;;;;;;;-148.88;93.71;-17125.47;4989396;28;20046;-82
2023/06/02 02:12:33;;;;;;;13.68;4.00;;;;;;;-148.88;93.85;-17125.47;4973349;28;20019;-84
2023/06/02 02:15:00;;;;;;;15.23;5.00;;;;;;;-148.88;93.80;-17125.47;4973840;28;20356;-82
2023/06/02 02:17:25;;;;;;;16.08;3.15;;;;;;;-148.88;93.02;-17125.47;4974371;28;20396;-84
2023/06/02 02:19:55;;;;;;;11.60;4.53;;;;;;;-148.88;94.11;-17125.47;4974804;28;20020;-84
2023/06/02 02:22:22;;;;;;;15.18;4.18;;;;;;;-148.88;94.20;-17125.47;4973374;28;20110;-84
2023/06/02 02:24:47;;;;;;;16.77;4.78;;;;;;;-148.88;95.37;-17125.47;4974066;28;20115;-84
2023/06/02 02:27:12;;;;;;;12.23;4.07;;;;;;;-148.88;94.57;-17125.47;4974470;28;20030;-83
2023/06/02 02:29:38;;;;;;;17.30;4.53;;;;;;;-148.88;96.52;-17125.47;4975173;28;20106;-84
2023/06/02 02:32:04;;;;;;;14.48;4.70;;;;;;;-148.88;96.99;-17125.47;4972972;28;20081;-82
2023/06/02 02:34:29;;;;;;;14.18;3.92;;;;;;;-148.88;95.59;-17125.47;4972883;28;20081;-84
2023/06/02 02:37:01;;;;;;;12.10;2.75;;;;;;;-148.88;95.11;-17125.47;4972755;28;20023;-82
2023/06/02 02:39:28;;;;;;;10.43;4.28;;;;;;;-148.88;94.60;-17125.47;4973015;28;20046;-84
2023/06/02 02:41:53;;;;;;;14.13;4.60;;;;;;;-148.88;95.69;-17125.47;4974543;28;20054;-85
2023/06/02 02:44:19;;;;;;;12.88;4.55;;;;;;;-148.88;96.35;-17125.47;4973195;28;20073;-84
2023/06/02 02:46:44;;;;;;;17.42;4.80;;;;;;;-148.88;95.82;-17125.47;4974263;28;20023;-83
2023/06/02 02:49:10;;;;;;;11.32;2.85;;;;;;;-148.88;95.45;-17125.47;4974277;28;20027;-84
2023/06/02 02:51:36;;;;;;;14.55;4.07;;;;;;;-148.88;93.75;-17125.47;4973156;28;20114;-84
2023/06/02 02:54:03;;;;;;;12.65;2.35;;;;;;;-148.88;94.21;-17125.47;4974406;28;20031;-84
2023/06/02 02:56:28;;;;;;;14.82;3.08;;;;;;;-148.88;93.60;-17125.47;4975802;28;20022;-84
2023/06/02 02:58:56;;;;;;;8.70;2.53;;;;;;;-148.88;94.09;-17125.47;4974571;28;20023;-84
2023/06/02 03:01:22;;;;;;;11.40;4.57;;;;;;;-148.88;95.26;-17125.47;4974096;28;20397;-84
2023/06/02 03:03:49;;;;;;;11.98;4.35;;;;;;;-148.88;95.65;-17125.47;4974035;28;20086;-82
2023/06/02 03:06:18;;;;;;;10.98;4.72;;;;;;;-148.88;96.11;-17125.47;4974647;28;20495;-83
2023/06/02 03:08:44;;;;;;;15.30;4.18;;;;;;;-148.88;96.13;-17125.47;4972562;28;20027;-83
2023/06/02 03:11:10;;;;;;;8.25;2.67;;;;;;;-148.88;97.18;-17125.47;4989207;28;20109;-83
2023/06/02 03:13:36;;;;;;;6.13;2.20;;;;;;;-148.88;97.65;-17125.47;4979120;28;20023;-84
2023/06/02 03:16:02;;;;;;;7.55;3.35;;;;;;;-148.88;98.51;-17125.47;4982240;28;20027;-86
2023/06/02 03:18:30;;;;;;;12.38;4.60;;;;;;;-148.88;97.29;-17125.47;4980836;28;20031;-86
2023/06/02 03:20:58;;;;;;;13.90;5.63;;;;;;;-148.88;96.91;-17125.47;4980466;28;20432;-85
2023/06/02 03:23:25;;;;;;;15.55;4.97;;;;;;;-148.88;97.89;-17125.47;4981740;28;20023;-86
2023/06/02 03:25:51;;;;;;;12.27;5.15;;;;;;;-148.88;99.16;-17125.47;4980952;28;20023;-86
2023/06/02 03:28:16;;;;;;;11.90;3.25;;;;;;;-148.88;97.39;-17125.47;4980017;28;20023;-86
2023/06/02 03:34:05;;;;;;;12.88;3.97;;;;;;;-148.88;97.65;-17125.47;4975890;28;20516;-82
2023/06/02 03:36:34;;;;;;;10.05;3.35;;;;;;;-148.88;98.48;-17125.47;4974517;28;20113;-82
2023/06/02 03:39:05;;;;;;;12.77;3.50;;;;;;;-148.88;99.11;-17125.47;4976026;28;20030;-84
2023/06/02 03:41:31;;;;;;;11.43;3.33;;;;;;;-148.88;98.68;-17125.47;4978039;28;20023;-84
2023/06/02 03:43:56;;;;;;;8.07;3.50;;;;;;;-148.88;99.09;-17125.47;4978422;28;20393;-83
2023/06/02 03:46:22;;;;;;;12.43;3.58;;;;;;;-148.88;97.90;-17125.47;4976019;28;20080;-84
2023/06/02 03:48:47;;;;;;;14.98;5.65;;;;;;;-148.88;99.14;-17125.47;4977515;28;20034;-83
2023/06/02 03:51:12;;;;;;;18.58;5.75;;;;;;;-148.88;98.14;-17125.47;4977748;28;20027;-84
2023/06/02 03:53:38;;;;;;;12.68;3.28;;;;;;;-148.88;99.33;-17125.47;4976721;28;20396;-85
2023/06/02 03:56:03;;;;;;;9.65;3.15;;;;;;;-148.88;100.00;-17125.47;4977158;28;20477;-84
2023/06/02 03:58:29;;;;;;;21.52;3.45;;;;;;;-148.88;100.00;-17125.47;4976062;28;20454;-85
2023/06/02 04:00:55;;;;;;;9.75;2.67;;;;;;;-148.88;98.21;-17125.47;4976948;28;20101;-83
2023/06/02 04:03:21;;;;;;;11.60;3.47;;;;;;;-148.88;98.88;-17125.47;4975924;28;20062;-83
2023/06/02 04:05:46;;;;;;;9.77;2.90;;;;;;;-148.88;99.57;-17125.47;4976077;28;20046;-84
2023/06/02 04:08:14;;;;;;;9.20;2.75;;;;;;;-148.88;100.00;-17125.47;4978029;28;20501;-85
2023/06/02 04:10:39;;;;;;;9.18;2.97;;;;;;;-148.88;98.75;-17125.47;4976102;28;20035;-84
2023/06/02 04:13:05;;;;;;;18.98;5.20;;;;;;;-148.88;99.86;-17125.47;4977849;28;20081;-83
2023/06/02 04:15:30;;;;;;;13.98;4.47;;;;;;;-148.88;99.19;-17125.47;4976854;28;20110;-84
2023/06/02 04:17:56;;;;;;;14.32;4.82;;;;;;;-148.88;99.37;-17125.47;4976992;28;20493;-84
2023/06/02 04:20:21;;;;;;;8.80;3.08;;;;;;;-148.88;100.00;-17125.47;4976571;28;20062;-82
2023/06/02 04:22:46;;;;;;;15.93;4.80;;;;;;;-148.88;100.00;-17125.47;4976365;28;20453;-83
2023/06/02 04:25:12;;;;;;;10.30;4.25;;;;;;;-148.88;100.00;-17125.47;4976078;28;20515;-83
2023/06/02 04:27:37;;;;;;;9.55;2.67;;;;;;;-148.88;100.00;-17125.47;4975575;28;20034;-84
2023/06/02 04:30:03;;;;;;;11.45;2.55;;;;;;;-148.88;99.86;-17125.47;4975469;28;20400;-84
2023/06/02 04:32:28;;;;;;;6.75;2.58;;;;;;;-148.88;98.99;-17125.47;4976729;28;20493;-83
2023/06/02 04:34:54;;;;;;;11.07;3.08;;;;;;;-148.88;99.63;-17125.47;4975896;28;20030;-84
2023/06/02 04:37:20;;;;;;;8.60;2.50;;;;;;;-148.88;99.74;-17125.47;4975239;28;20405;-84
2023/06/02 04:39:47;;;;;;;18.77;5.35;;;;;;;-148.88;100.00;-17125.47;4975510;28;20077;-84
2023/06/02 04:42:13;;;;;;;12.90;3.08;;;;;;;-148.88;99.57;-17125.47;4976327;28;20476;-84
2023/06/02 04:44:39;;;;;;;20.52;4.82;;;;;;;-148.88;98.91;-17125.47;4991627;28;20186;-82
2023/06/02 04:47:05;;;;;;;11.55;3.75;;;;;;;-148.88;99.00;-17125.47;4976718;28;20442;-83
2023/06/02 04:49:30;;;;;;;9.85;2.65;;;;;;;-148.88;98.28;-17125.47;4977769;28;20030;-84
2023/06/02 04:51:56;;;;;;;12.68;4.32;;;;;;;-148.88;98.09;-17125.47;4978479;28;20370;-84
2023/06/02 04:54:21;;;;;;;13.65;4.28;;;;;;;-148.88;97.74;-17125.47;4978214;28;20071;-83
2023/06/02 04:56:46;;;;;;;15.45;3.40;;;;;;;-148.88;97.66;-17125.47;4975248;28;20077;-84
2023/06/02 04:59:12;;;;;;;9.57;2.47;;;;;;;-148.88;98.48;-17125.47;4975852;28;20333;-83
2023/06/02 05:01:37;;;;;;;15.82;3.10;;;;;;;-148.88;99.23;-17125.47;4977648;28;20130;-84
2023/06/02 05:04:03;;;;;;;10.23;2.60;;;;;;;-148.88;99.28;-17125.47;4977043;28;20400;-83
2023/06/02 05:06:30;;;;;;;17.67;4.63;;;;;;;-148.88;100.00;-17125.47;4975586;28;20207;-84
2023/06/02 05:08:55;;;;;;;15.63;4.53;;;;;;;-148.88;100.00;-17125.47;4976111;28;20031;-85
2023/06/02 05:11:20;;;;;;;20.25;4.95;;;;;;;-148.88;100.00;-17125.47;4978379;28;20023;-86
2023/06/02 05:13:46;;;;;;;11.93;2.63;;;;;;;-148.88;100.00;-17125.47;4979768;28;20524;-83
2023/06/02 05:16:12;;;;;;;10.88;2.20;;;;;;;-148.88;100.00;-17125.47;4976861;28;20428;-85
2023/06/02 05:18:37;;;;;;;15.13;2.85;;;;;;;-148.88;100.00;-17125.47;4976783;28;20039;-85
2023/06/02 05:21:03;;;;;;;11.50;3.13;;;;;;;-148.88;100.00;-17125.47;4976401;28;20019;-85
2023/06/02 05:23:28;;;;;;;14.95;4.35;;;;;;;-148.88;100.00;-17125.47;4976557;28;20110;-84
2023/06/02 05:25:54;;;;;;;6.10;2.40;;;;;;;-148.88;100.00;-17125.47;4976847;28;20043;-85
2023/06/02 05:28:19;;;;;;;10.45;2.65;;;;;;;-148.88;100.00;-17125.47;4975927;28;20417;-86
2023/06/02 05:30:45;;;;;;;11.82;2.78;;;;;;;-148.88;100.00;-17125.47;4978576;28;20034;-84
2023/06/02 05:33:10;;;;;;;14.88;4.85;;;;;;;-148.88;100.00;-17125.47;4983907;28;20030;-87
2023/06/02 05:35:35;;;;;;;5.82;1.98;;;;;;;-148.88;99.89;-17125.47;4984466;28;20096;-87
2023/06/02 05:38:01;;;;;;;17.90;3.03;;;;;;;-148.88;99.98;-17125.47;4984226;28;20078;-86
2023/06/02 05:40:26;;;;;;;16.73;4.90;;;;;;;-148.88;100.00;-17125.47;4982226;28;20023;-85
2023/06/02 05:42:52;;;;;;;17.05;6.57;;;;;;;-148.88;100.00;-17125.47;4982449;28;20034;-86
2023/06/02 05:45:17;;;;;;;9.80;2.38;;;;;;;-148.88;100.00;-17125.47;4981346;28;20023;-85
2023/06/02 05:47:43;;;;;;;17.77;4.93;;;;;;;-148.88;100.00;-17125.47;4980686;28;20073;-86
2023/06/02 05:50:09;;;;;;;16.17;4.57;;;;;;;-148.88;100.00;-17125.47;4980789;28;20101;-86
2023/06/02 05:52:34;;;;;;;13.52;4.57;;;;;;;-148.88;100.00;-17125.47;4978552;28;20085;-85
2023/06/02 05:54:59;;;;;;;17.90;4.30;;;;;;;-148.88;100.00;-17125.47;4974186;28;20027;-83
2023/06/02 05:57:25;;;;;;;12.30;2.92;;;;;;;-148.88;100.00;-17125.47;4974196;28;20034;-84
2023/06/02 05:59:50;;;;;;;9.50;3.00;;;;;;;-148.88;100.00;-17125.47;4974073;28;20050;-85
2023/06/02 06:02:16;;;;;;;6.50;2.55;;;;;;;-148.88;100.00;-17125.47;4975983;28;20034;-84
2023/06/02 06:04:41;;;;;;;12.38;3.47;;;;;;;-148.88;100.00;-17125.47;4973712;28;20062;-84
2023/06/02 06:07:06;;;;;;;12.65;4.13;;;;;;;-148.88;100.00;-17125.47;4974029;28;20101;-83
2023/06/02 06:09:32;;;;;;;16.83;4.68;;;;;;;-148.88;100.00;-17125.47;4974626;28;20027;-83
2023/06/02 06:11:57;;;;;;;15.70;4.80;;;;;;;-148.88;100.00;-17125.47;4974336;28;20034;-82
2023/06/02 06:14:23;;;;;;;13.43;4.90;;;;;;;-148.88;100.00;-17125.47;4974732;28;20365;-84
2023/06/02 06:16:48;;;;;;;25.55;3.15;;;;;;;-148.88;100.00;-17125.47;4974037;28;20058;-85
2023/06/02 06:19:13;;;;;;;10.35;2.80;;;;;;;-148.88;100.00;-17125.47;4973808;28;20024;-83
2023/06/02 06:21:39;;;;;;;12.07;3.90;;;;;;;-148.88;100.00;-17125.47;4973390;28;20037;-84
2023/06/02 06:24:05;;;;;;;16.58;3.30;;;;;;;-148.88;100.00;-17125.47;4974539;28;20039;-84
2023/06/02 06:26:32;;;;;;;18.85;4.82;;;;;;;-148.88;100.00;-17125.47;4975665;28;20051;-84
2023/06/02 06:28:57;;;;;;;15.30;4.80;;;;;;;-148.88;100.00;-17125.47;4974324;28;20058;-84
2023/06/02 06:31:23;;;;;;;18.55;5.10;;;;;;;-148.88;100.00;-17125.47;4974200;28;20485;-85
2023/06/02 06:33:49;;;;;;;16.08;4.65;;;;;;;-148.88;100.00;-17125.47;4974460;28;20034;-84
2023/06/02 06:36:14;;;;;;;19.88;5.03;;;;;;;-148.88;100.00;-17125.47;4974783;28;20318;-83
2023/06/02 06:38:41;;;;;;;17.67;4.63;;;;;;;-148.88;100.00;-17125.47;4974512;28;20081;-83
2023/06/02 06:41:06;;;;;;;14.40;4.30;;;;;;;-148.88;100.00;-17125.47;4973346;28;20022;-83
2023/06/02 06:43:32;;;;;;;16.77;4.85;;;;;;;-148.88;100.00;-17125.47;4975160;28;20058;-84
2023/06/02 06:45:59;;;;;;;17.70;5.32;;;;;;;-148.88;100.00;-17125.47;4975385;28;20129;-84
2023/06/02 06:48:24;;;;;;;17.83;5.45;;;;;;;-148.88;100.00;-17125.47;4972881;28;20026;-85
2023/06/02 06:50:50;;;;;;;15.15;5.45;;;;;;;-148.88;100.00;-17125.47;4974205;28;20030;-84
2023/06/02 06:53:15;;;;;;;14.70;5.10;;;;;;;-148.88;100.00;-17125.47;4974298;28;20029;-84
2023/06/02 06:55:41;;;;;;;15.18;5.10;;;;;;;-148.88;100.00;-17125.47;4974113;28;20393;-85
2023/06/02 06:58:06;;;;;;;18.50;5.15;;;;;;;-148.88;100.00;-17125.47;4974208;28;20081;-84
2023/06/02 07:00:32;;;;;;;17.27;5.55;;;;;;;-148.88;100.00;-17125.47;4974026;28;20027;-85
2023/06/02 07:02:58;;;;;;;17.55;5.32;;;;;;;-148.88;100.00;-17125.47;4974464;28;20031;-84
2023/06/02 07:05:23;;;;;;;16.00;4.70;;;;;;;-148.88;100.00;-17125.47;4972473;28;20499;-85
2023/06/02 07:07:49;;;;;;;15.30;5.80;;;;;;;-148.88;100.00;-17125.47;4973937;28;20077;-84
2023/06/02 07:10:14;;;;;;;14.75;5.05;;;;;;;-148.88;100.00;-17125.47;4972504;28;20026;-84
2023/06/02 07:12:40;;;;;;;17.33;6.03;;;;;;;-148.88;100.00;-17125.47;4977057;28;20035;-84
2023/06/02 07:15:06;;;;;;;20.02;5.93;;;;;;;-148.88;100.00;-17125.47;4980315;28;20084;-86
2023/06/02 07:17:31;;;;;;;17.92;5.30;;;;;;;-148.88;100.00;-17125.47;4978484;28;20039;-86
2023/06/02 07:19:57;;;;;;;17.20;5.20;;;;;;;-148.88;100.00;-17125.47;4977205;28;20605;-84
2023/06/02 07:22:22;;;;;;;16.63;5.18;;;;;;;-148.88;100.00;-17125.47;4977280;28;20019;-85
2023/06/02 07:24:47;;;;;;;11.13;4.68;;;;;;;-148.88;100.00;-17125.47;4977287;28;20019;-84
2023/06/02 07:27:13;;;;;;;19.65;5.50;;;;;;;-148.88;100.00;-17125.47;4977390;28;20485;-85
2023/06/02 07:29:39;;;;;;;16.65;5.53;;;;;;;-148.88;100.00;-17125.47;4977697;28;20034;-84
2023/06/02 07:32:05;;;;;;;15.85;4.95;;;;;;;-148.88;100.00;-17125.47;4978820;28;20027;-85
2023/06/02 07:34:31;;;;;;;18.90;5.65;;;;;;;-148.88;100.00;-17125.47;4978319;28;20477;-86
2023/06/02 07:37:00;;;;;;;16.23;5.50;;;;;;;-148.88;100.00;-17125.47;4976935;28;20037;-83
2023/06/02 07:39:25;;;;;;;13.63;5.60;;;;;;;-148.88;100.00;-17125.47;4975832;28;20050;-84
2023/06/02 07:41:51;;;;;;;13.45;4.93;;;;;;;-148.88;100.00;-17125.47;4977106;28;20393;-84
2023/06/02 07:44:16;;;;;;;11.73;3.65;;;;;;;-148.88;100.00;-17125.47;4975976;28;20046;-83
2023/06/02 07:46:43;;;;;;;15.20;5.55;;;;;;;-148.88;100.00;-17125.47;4977415;28;20078;-84
2023/06/02 07:49:09;;;;;;;15.38;5.20;;;;;;;-148.88;100.00;-17125.47;4976468;28;20026;-84
2023/06/02 07:51:34;;;;;;;16.80;5.55;;;;;;;-148.88;99.76;-17125.47;4977639;28;20440;-82
2023/06/02 07:54:00;;;;;;;16.00;5.00;;;;;;;-148.88;99.41;-17125.47;4977447;28;20022;-86
2023/06/02 07:56:25;;;;;;;13.30;5.30;;;;;;;-148.88;98.90;-17125.47;4977844;28;20035;-85
2023/06/02 07:58:54;;;;;;;12.93;5.47;;;;;;;-148.88;100.00;-17125.47;4977061;28;20027;-85
2023/06/02 08:01:19;;;;;;;19.50;5.93;;;;;;;-148.88;100.00;-17125.47;4976671;28;20091;-84
2023/06/02 08:03:45;;;;;;;13.00;5.25;;;;;;;-148.88;100.00;-17125.47;4977550;28;20394;-84
2023/06/02 08:06:10;;;;;;;15.65;5.65;;;;;;;-148.88;100.00;-17125.47;4977274;28;20037;-84
2023/06/02 08:08:35;;;;;;;14.60;5.30;;;;;;;-148.88;100.00;-17125.47;4976476;28;20029;-84
2023/06/02 08:11:01;;;;;;;13.40;5.20;;;;;;;-148.88;100.00;-17125.47;4978790;28;20489;-83
2023/06/02 08:13:26;;;;;;;17.88;5.60;;;;;;;-148.88;100.00;-17125.47;4977239;28;20497;-84
2023/06/02 08:15:55;;;;;;;13.70;5.05;;;;;;;-148.88;100.00;-17125.47;4977022;28;20035;-85
2023/06/02 08:18:20;;;;;;;15.13;5.75;;;;;;;-148.88;100.00;-17125.47;4977164;28;20400;-85
2023/06/02 08:20:46;;;;;;;15.38;5.35;;;;;;;-148.88;100.00;-17125.47;4976304;28;20110;-85
2023/06/02 08:23:11;;;;;;;18.90;6.05;;;;;;;-148.88;100.00;-17125.47;4976678;28;20485;-84
2023/06/02 08:25:38;;;;;;;13.57;5.38;;;;;;;-148.88;100.00;-17125.47;4978298;28;20027;-84
2023/06/02 08:28:07;;;;;;;15.57;5.40;;;;;;;-148.88;99.61;-17125.47;4977145;28;20123;-84
2023/06/02 08:30:36;;;;;;;12.73;5.03;;;;;;;-148.88;100.00;-17125.47;4976932;28;20027;-85
2023/06/02 08:33:03;;;;;;;13.25;5.00;;;;;;;-148.88;99.27;-17125.47;4976948;28;20031;-84
2023/06/02 08:35:32;;;;;;;13.02;5.60;;;;;;;-148.88;100.00;-17125.47;4977711;28;20027;-85
2023/06/02 08:38:02;;;;;;;15.57;5.45;;;;;;;-148.88;100.00;-17125.47;4974868;28;20027;-83
2023/06/02 08:40:34;;;;;;;17.60;5.85;;;;;;;-148.88;100.00;-17125.47;4991334;28;20046;-84
2023/06/02 08:43:03;;;;;;;14.15;5.43;;;;;;;-148.88;100.00;-17125.47;4974973;28;20056;-84
2023/06/02 08:45:28;;;;;;;13.85;5.80;;;;;;;-148.88;100.00;-17125.47;4976643;28;20401;-85
2023/06/02 08:47:54;;;;;;;14.48;5.85;;;;;;;-148.88;100.00;-17125.47;4976883;28;20058;-85
2023/06/02 08:50:27;;;;;;;13.65;5.45;;;;;;;-148.88;100.00;-17125.47;4976987;28;20441;-84
2023/06/02 08:52:55;;;;;;;15.05;6.28;;;;;;;-148.88;100.00;-17125.47;4976476;28;20018;-84
2023/06/02 08:55:23;;;;;;;12.57;5.45;;;;;;;-148.88;98.97;-17125.47;4991322;28;20030;-84
2023/06/02 08:57:48;;;;;;;15.10;5.70;;;;;;;-148.88;98.43;-17125.47;4975934;28;20062;-85
2023/06/02 09:00:15;;;;;;;16.05;5.38;;;;;;;-148.88;98.26;-17125.47;4975324;28;20122;-84
2023/06/02 09:02:58;;;;;;;14.90;5.28;;;;;;;-148.88;100.00;-17125.47;4976053;28;20027;-84
2023/06/02 09:05:24;;;;;;;16.50;5.75;;;;;;;-148.88;98.45;-17125.47;4974588;28;20106;-85
2023/06/02 09:08:07;;;;;;;13.23;5.55;;;;;;;-148.88;98.34;-17125.47;4990458;28;20537;-84
2023/06/02 09:10:36;;;;;;;17.25;5.68;;;;;;;-148.88;100.00;-17125.47;4976122;28;20113;-88
2023/06/02 09:13:02;;;;;;;16.98;6.00;;;;;;;-148.88;100.00;-17125.47;4974315;28;20397;-81
2023/06/02 09:15:27;;;;;;;15.80;5.53;;;;;;;-148.88;100.00;-17125.47;4976917;28;20033;-85
2023/06/02 09:18:11;;;;;;;13.20;5.45;;;;;;;-148.88;100.00;-17125.47;4979862;28;20034;-85
2023/06/02 09:20:38;;;;;;;16.60;5.93;;;;;;;-148.88;100.00;-17125.47;4993003;28;20042;-86
2023/06/02 09:23:03;;;;;;;19.50;5.55;;;;;;;-148.88;99.91;-17125.47;4978564;28;20033;-85
2023/06/02 09:25:30;;;;;;;19.83;6.40;;;;;;;-148.88;100.00;-17125.47;4979290;28;20018;-85
2023/06/02 09:27:58;;;;;;;14.35;5.70;;;;;;;-148.88;100.00;-17125.47;4978762;28;20034;-86
2023/06/02 09:30:27;;;;;;;14.77;5.80;;;;;;;-148.88;99.88;-17125.47;4977837;28;20031;-86
2023/06/02 09:33:05;;;;;;;13.20;6.03;;;;;;;-148.88;100.00;-17125.47;4976882;28;20030;-84
2023/06/02 09:35:40;;;;;;;12.77;5.13;;;;;;;-148.88;98.82;-17125.47;4976511;28;20419;-85
2023/06/02 09:38:07;;;;;;;17.40;6.30;;;;;;;-148.88;97.51;-17125.47;4975002;28;20023;-85
2023/06/02 09:40:34;;;;;;;16.63;6.10;;;;;;;-148.88;98.91;-17125.47;4975303;28;20435;-84
2023/06/02 09:43:06;;;;;;;12.48;5.38;;;;;;;-148.88;100.00;-17125.47;4975464;28;20104;-84
2023/06/02 09:45:33;;;;;;;15.20;5.88;;;;;;;-148.88;99.44;-17125.47;4990375;28;20113;-83
2023/06/02 09:47:58;;;;;;;18.10;5.85;;;;;;;-148.88;99.81;-17125.47;4976544;28;20027;-82
2023/06/02 09:50:37;;;;;;;16.83;6.18;;;;;;;-148.88;100.00;-17125.47;4973503;28;20084;-83
2023/06/02 09:53:07;;;;;;;13.23;5.43;;;;;;;-148.88;97.54;-17125.47;4974490;28;20026;-83
2023/06/02 09:55:37;;;;;;;12.38;5.75;;;;;;;-148.88;92.46;-17125.47;4975492;28;20046;-85
2023/06/02 09:58:04;;;;;;;13.63;5.60;;;;;;;-148.88;92.85;-17125.47;4974269;28;20089;-84
2023/06/02 10:00:31;;;;;;;17.83;5.35;;;;;;;-148.88;93.24;-17125.47;4973988;28;20026;-84
2023/06/02 10:02:56;;;;;;;15.50;5.68;;;;;;;-148.88;89.56;-17125.47;4974440;28;20027;-84
2023/06/02 10:05:23;;;;;;;18.77;5.65;;;;;;;-148.88;92.63;-17125.47;4977025;28;20026;-85
2023/06/02 10:07:54;;;;;;;11.25;5.07;;;;;;;-148.88;88.60;-17125.47;4980782;28;20030;-85
2023/06/02 10:10:59;;;;;;;12.10;5.00;;;;;;;-148.88;86.78;-17125.47;4991317;28;20049;-86
2023/06/02 10:13:33;;;;;;;;;;;;;;;-148.88;85.95;-17125.47;4940375;28;20133;-86
2023/06/02 10:16:23;;;;;;;10.15;4.85;;;;;;;-148.88;85.93;-17125.47;5003797;23;21870;-77
2023/06/02 10:19:01;;;;;;;12.65;4.80;;;;;;;-148.88;82.73;-17125.47;4972743;28;20039;-74
2023/06/02 10:21:45;;;;;;;12.65;4.60;;;;;;;-148.88;83.03;-17125.47;4972952;28;20375;-75
2023/06/02 10:24:31;;;;;;;12.55;5.05;;;;;;;-148.88;83.90;-17125.47;4974257;28;20023;-75
2023/06/02 10:27:17;;;;;;;14.57;5.05;;;;;;;-148.88;86.13;-17125.47;4974321;28;20027;-74
2023/06/02 10:29:45;;;;;;;10.73;4.70;;;;;;;-148.88;81.84;-17125.47;4974772;28;20486;-75
2023/06/02 10:32:22;;;;;;;11.75;5.25;;;;;;;-148.88;82.21;-17125.47;4974935;28;20058;-74
2023/06/02 10:34:52;;;;;;;11.85;4.90;;;;;;;-148.88;81.59;-17125.47;4973059;28;20041;-74
2023/06/02 10:37:19;;;;;;;11.38;4.35;;;;;;;-148.88;80.82;-17125.47;4974291;28;20026;-74
2023/06/02 10:39:46;;;;;;;12.23;4.28;;;;;;;-148.88;75.55;-17125.47;4974460;28;20019;-74
2023/06/02 10:42:13;;;;;;;10.10;4.00;;;;;;;-148.88;75.72;-17125.47;4974337;28;20026;-75
2023/06/02 10:44:39;;;;;;;11.93;4.95;;;;;;;-148.88;79.37;-17125.47;4974271;28;20501;-74
2023/06/02 10:47:17;;;;;;;8.30;4.70;;;;;;;-148.88;76.10;-17125.47;4975013;28;20038;-74
2023/06/02 10:50:02;;;;;;;16.55;5.30;;;;;;;-148.88;80.15;-17125.47;4977925;28;20035;-74
2023/06/02 10:52:32;;;;;;;11.93;4.63;;;;;;;-148.88;81.26;-17125.47;4976665;28;20026;-74
2023/06/02 10:55:06;;;;;;;12.35;4.63;;;;;;;-148.88;78.33;-17125.47;4977999;28;20494;-74
2023/06/02 10:57:53;;;;;;;13.32;4.97;;;;;;;-148.88;85.16;-17125.47;4977854;28;20026;-74
2023/06/02 11:00:35;;;;;;;12.27;4.97;;;;;;;-148.88;82.51;-17125.47;4977830;28;20026;-75
2023/06/02 11:03:21;;;;;;;14.82;5.32;;;;;;;-148.88;74.96;-17125.47;4977781;28;20104;-75